createdAt,value
2022-11-06T00:01:15.411Z,4.87
2022-11-06T00:03:42.871Z,5.23
2022-11-06T00:06:29.330Z,7.20
2022-11-06T00:08:56.687Z,4.87
2022-11-06T00:11:23.943Z,4.63
2022-11-06T00:13:52.523Z,5.07
2022-11-06T00:16:20.208Z,4.90
2022-11-06T00:18:47.683Z,4.50
2022-11-06T00:21:16.325Z,3.90
2022-11-06T00:23:43.807Z,5.13
2022-11-06T00:26:16.377Z,5.27
2022-11-06T00:28:44.086Z,4.80
2022-11-06T00:31:14.897Z,8.07
2022-11-06T00:33:42.021Z,6.93
2022-11-06T00:36:11.546Z,5.13
2022-11-06T00:38:38.436Z,5.20
2022-11-06T00:41:07.259Z,4.40
2022-11-06T00:43:35.674Z,4.33
2022-11-06T00:46:08.497Z,4.27
2022-11-06T00:48:35.966Z,4.97
2022-11-06T00:51:07.974Z,5.47
2022-11-06T00:53:34.738Z,4.57
2022-11-06T00:56:20.339Z,5.67
2022-11-06T00:58:47.931Z,5.33
2022-11-06T01:01:30.673Z,4.80
2022-11-06T01:04:12.646Z,5.10
2022-11-06T01:06:41.902Z,4.70
2022-11-06T01:09:09.595Z,5.00
2022-11-06T01:12:06.740Z,4.77
2022-11-06T01:14:28.113Z,5.20
2022-11-06T01:16:54.865Z,5.10
2022-11-06T01:19:22.737Z,5.47
2022-11-06T01:21:54.961Z,6.73
2022-11-06T01:24:25.172Z,5.37
2022-11-06T01:29:38.965Z,5.37
2022-11-06T01:32:06.941Z,5.30
2022-11-06T01:34:33.911Z,4.77
2022-11-06T01:37:00.616Z,5.57
2022-11-06T01:39:27.410Z,4.87
2022-11-06T01:41:55.330Z,5.60
2022-11-06T01:44:33.750Z,4.97
2022-11-06T01:47:06.575Z,4.87
2022-11-06T01:49:37.110Z,7.07
2022-11-06T01:52:08.858Z,4.30
2022-11-06T01:54:38.257Z,4.77
2022-11-06T01:57:06.202Z,4.80
2022-11-06T01:59:36.610Z,4.90
2022-11-06T02:02:03.856Z,4.77
2022-11-06T02:04:38.215Z,4.63
2022-11-06T02:07:06.007Z,3.80
2022-11-06T02:09:34.480Z,4.27
2022-11-06T02:12:12.873Z,3.80
2022-11-06T02:14:52.904Z,3.47
2022-11-06T02:17:42.092Z,3.83
2022-11-06T02:20:41.413Z,3.33
2022-11-06T02:23:23.105Z,3.93
2022-11-06T02:26:00.754Z,4.20
2022-11-06T02:28:42.252Z,3.17
2022-11-06T02:31:14.344Z,3.93
2022-11-06T02:33:50.108Z,3.57
2022-11-06T02:36:21.768Z,3.50
2022-11-06T02:38:55.934Z,3.63
2022-11-06T02:41:26.900Z,3.43
2022-11-06T02:43:56.226Z,3.63
2022-11-06T02:46:33.420Z,3.23
2022-11-06T02:49:06.834Z,3.40
2022-11-06T02:51:41.877Z,3.03
2022-11-06T02:54:10.789Z,3.40
2022-11-06T02:56:41.957Z,3.10
2022-11-06T02:59:20.369Z,3.20
2022-11-06T03:01:54.644Z,2.90
2022-11-06T03:04:32.541Z,3.10
2022-11-06T03:07:06.761Z,3.07
2022-11-06T03:09:34.017Z,2.70
2022-11-06T03:12:19.919Z,2.90
2022-11-06T03:14:59.896Z,3.10
2022-11-06T03:17:33.725Z,2.80
2022-11-06T03:20:21.841Z,2.50
2022-11-06T03:22:57.357Z,2.30
2022-11-06T03:25:24.423Z,3.37
2022-11-06T03:28:12.396Z,2.30
2022-11-06T03:30:41.842Z,2.43
2022-11-06T03:33:21.235Z,2.30
2022-11-06T03:35:49.471Z,2.30
2022-11-06T03:38:21.172Z,2.70
2022-11-06T03:40:52.292Z,3.00
2022-11-06T03:43:21.307Z,3.20
2022-11-06T03:45:49.615Z,3.10
2022-11-06T03:48:22.136Z,2.93
2022-11-06T03:50:57.135Z,2.83
2022-11-06T03:53:27.817Z,2.73
2022-11-06T03:55:58.805Z,2.70
2022-11-06T03:58:32.933Z,2.30
2022-11-06T04:01:01.818Z,2.73
2022-11-06T04:03:50.109Z,2.73
2022-11-06T04:06:23.774Z,2.90
2022-11-06T04:09:10.815Z,3.30
2022-11-06T04:11:57.686Z,3.03
2022-11-06T04:14:26.894Z,3.70
2022-11-06T04:16:59.314Z,3.20
2022-11-06T04:19:26.426Z,3.00
2022-11-06T04:22:05.471Z,3.37
2022-11-06T04:25:01.393Z,3.17
2022-11-06T04:27:39.387Z,2.80
2022-11-06T04:30:17.862Z,3.33
2022-11-06T04:32:47.681Z,3.30
2022-11-06T04:35:20.041Z,2.80
2022-11-06T04:37:53.138Z,3.13
2022-11-06T04:40:40.464Z,3.30
2022-11-06T04:43:14.041Z,3.07
2022-11-06T04:45:42.907Z,3.33
2022-11-06T04:48:11.099Z,3.27
2022-11-06T04:50:43.873Z,2.90
2022-11-06T04:53:12.111Z,2.73
2022-11-06T04:55:49.125Z,2.63
2022-11-06T04:58:16.471Z,2.90
2022-11-06T05:00:46.235Z,2.47
2022-11-06T05:03:13.662Z,2.60
2022-11-06T05:05:41.140Z,2.37
2022-11-06T05:08:13.745Z,2.50
2022-11-06T05:10:41.296Z,2.30
2022-11-06T05:13:08.428Z,2.40
2022-11-06T05:15:35.576Z,2.33
2022-11-06T05:18:02.795Z,2.53
2022-11-06T05:20:30.104Z,2.30
2022-11-06T05:23:03.068Z,2.00
2022-11-06T05:25:30.155Z,2.03
2022-11-06T05:27:57.618Z,2.40
2022-11-06T05:30:25.128Z,2.23
2022-11-06T05:32:52.541Z,2.17
2022-11-06T05:35:20.847Z,2.23
2022-11-06T05:37:48.021Z,2.30
2022-11-06T05:40:15.198Z,2.20
2022-11-06T05:42:43.179Z,2.83
2022-11-06T05:45:11.115Z,1.93
2022-11-06T05:47:40.478Z,2.63
2022-11-06T05:50:07.922Z,2.20
2022-11-06T05:52:35.802Z,2.10
2022-11-06T05:55:02.908Z,2.30
2022-11-06T05:57:29.980Z,2.87
2022-11-06T05:59:57.028Z,2.60
2022-11-06T06:02:24.166Z,2.20
2022-11-06T06:04:51.330Z,1.87
2022-11-06T06:07:18.405Z,2.37
2022-11-06T06:09:45.482Z,2.37
2022-11-06T06:12:13.767Z,1.83
2022-11-06T06:14:40.871Z,2.40
2022-11-06T06:17:08.086Z,1.80
2022-11-06T06:19:35.586Z,1.80
2022-11-06T06:22:02.653Z,1.63
2022-11-06T06:24:29.746Z,2.00
2022-11-06T06:26:56.840Z,1.87
2022-11-06T06:29:23.937Z,2.70
2022-11-06T06:31:51.165Z,1.77
2022-11-06T06:34:18.321Z,1.83
2022-11-06T06:36:45.508Z,2.00
2022-11-06T06:39:12.610Z,2.00
2022-11-06T06:41:39.700Z,1.80
2022-11-06T06:44:06.750Z,3.13
2022-11-06T06:46:33.985Z,2.33
2022-11-06T06:49:01.084Z,1.80
2022-11-06T06:51:28.209Z,2.37
2022-11-06T06:53:55.339Z,1.90
2022-11-06T06:56:22.491Z,1.60
2022-11-06T06:58:49.908Z,1.50
2022-11-06T07:01:17.109Z,2.93
2022-11-06T07:03:44.309Z,1.70
2022-11-06T07:06:11.476Z,2.03
2022-11-06T07:08:38.615Z,2.57
2022-11-06T07:11:07.591Z,1.70
2022-11-06T07:13:36.332Z,1.80
2022-11-06T07:16:07.756Z,2.10
2022-11-06T07:18:35.270Z,2.00
2022-11-06T07:21:04.711Z,2.30
2022-11-06T07:23:31.807Z,1.73
2022-11-06T07:25:58.874Z,2.10
2022-11-06T07:28:25.965Z,1.87
2022-11-06T07:30:53.025Z,2.03
2022-11-06T07:33:20.110Z,2.83
2022-11-06T07:35:47.294Z,2.80
2022-11-06T07:38:14.856Z,1.77
2022-11-06T07:40:42.287Z,2.17
2022-11-06T07:43:10.503Z,1.80
2022-11-06T07:45:38.874Z,2.33
2022-11-06T07:48:06.544Z,3.33
2022-11-06T07:50:33.730Z,2.23
2022-11-06T07:53:03.059Z,2.67
2022-11-06T07:55:30.217Z,2.20
2022-11-06T07:57:58.808Z,1.97
2022-11-06T08:00:26.012Z,1.80
2022-11-06T08:02:53.852Z,2.23
2022-11-06T08:05:21.190Z,1.97
2022-11-06T08:07:48.340Z,1.67
2022-11-06T08:10:15.465Z,2.10
2022-11-06T08:12:42.606Z,2.07
2022-11-06T08:15:09.920Z,1.73
2022-11-06T08:17:37.510Z,2.37
2022-11-06T08:20:04.817Z,2.27
2022-11-06T08:22:31.916Z,2.27
2022-11-06T08:24:59.203Z,2.27
2022-11-06T08:27:26.282Z,2.10
2022-11-06T08:29:53.429Z,1.70
2022-11-06T08:32:20.559Z,2.37
2022-11-06T08:34:47.637Z,1.77
2022-11-06T08:37:14.775Z,1.77
2022-11-06T08:39:41.885Z,1.37
2022-11-06T08:42:09.568Z,2.20
2022-11-06T08:44:36.966Z,1.97
2022-11-06T08:47:04.081Z,1.80
2022-11-06T08:49:31.165Z,1.57
2022-11-06T08:51:58.264Z,2.00
2022-11-06T08:54:25.374Z,1.80
2022-11-06T08:56:52.492Z,2.20
2022-11-06T08:59:19.763Z,2.33
2022-11-06T09:01:46.931Z,1.87
2022-11-06T09:04:14.281Z,1.80
2022-11-06T09:06:41.416Z,1.93
2022-11-06T09:09:08.537Z,2.60
2022-11-06T09:11:35.611Z,2.23
2022-11-06T09:14:02.712Z,2.33
2022-11-06T09:16:29.837Z,1.97
2022-11-06T09:18:57.131Z,1.70
2022-11-06T09:21:24.483Z,2.00
2022-11-06T09:23:51.830Z,2.00
2022-11-06T09:26:19.142Z,2.67
2022-11-06T09:28:46.988Z,1.83
2022-11-06T09:31:14.192Z,1.70
2022-11-06T09:33:41.344Z,2.30
2022-11-06T09:36:08.655Z,1.90
2022-11-06T09:38:35.832Z,1.80
2022-11-06T09:41:03.412Z,1.57
2022-11-06T09:44:03.998Z,1.97
2022-11-06T09:46:26.983Z,1.70
2022-11-06T09:48:57.585Z,1.97
2022-11-06T09:51:24.632Z,1.73
2022-11-06T09:53:55.658Z,1.97
2022-11-06T09:56:25.765Z,1.77
2022-11-06T09:58:53.829Z,1.67
2022-11-06T10:01:27.562Z,1.93
2022-11-06T10:03:59.317Z,1.93
2022-11-06T10:06:26.982Z,2.27
2022-11-06T10:08:55.690Z,2.00
2022-11-06T10:11:29.484Z,3.10
2022-11-06T10:14:02.540Z,2.20
2022-11-06T10:16:29.774Z,2.30
2022-11-06T10:18:59.910Z,1.80
2022-11-06T10:21:33.177Z,2.00
2022-11-06T10:24:03.021Z,3.80
2022-11-06T10:26:38.981Z,2.43
2022-11-06T10:29:27.549Z,2.00
2022-11-06T10:32:24.833Z,2.23
2022-11-06T10:35:14.874Z,1.90
2022-11-06T10:37:53.237Z,2.13
2022-11-06T10:40:24.434Z,2.33
2022-11-06T10:43:01.377Z,1.97
2022-11-06T10:45:29.511Z,2.20
2022-11-06T10:48:05.914Z,2.50
2022-11-06T10:51:11.566Z,2.50
2022-11-06T10:53:38.218Z,2.03
2022-11-06T10:56:19.917Z,2.27
2022-11-06T10:58:47.818Z,2.00
2022-11-06T11:01:15.369Z,2.13
2022-11-06T11:03:45.348Z,1.73
2022-11-06T11:06:12.060Z,2.63
2022-11-06T11:08:40.305Z,2.27
2022-11-06T11:13:34.896Z,2.17
2022-11-06T11:16:03.434Z,1.90
2022-11-06T11:18:34.164Z,2.53
2022-11-06T11:21:27.836Z,1.90
2022-11-06T11:24:10.320Z,1.80
2022-11-06T11:27:06.832Z,1.90
2022-11-06T11:29:45.291Z,2.10
2022-11-06T11:32:16.060Z,2.60
2022-11-06T11:34:55.330Z,2.00
2022-11-06T11:37:34.215Z,1.97
2022-11-06T11:40:35.767Z,2.27
2022-11-06T11:43:22.095Z,2.17
2022-11-06T11:46:12.223Z,2.03
2022-11-06T11:48:49.626Z,2.80
2022-11-06T11:51:37.809Z,2.33
2022-11-06T11:54:13.010Z,2.73
2022-11-06T11:57:04.035Z,1.90
2022-11-06T11:59:46.242Z,2.17
2022-11-06T12:02:27.254Z,1.80
2022-11-06T12:05:10.790Z,1.90
2022-11-06T12:07:45.962Z,1.60
2022-11-06T12:10:27.681Z,1.90
2022-11-06T12:12:56.153Z,1.70
2022-11-06T12:15:45.871Z,2.50
2022-11-06T12:18:33.009Z,2.47
2022-11-06T12:21:05.837Z,1.80
2022-11-06T12:23:51.489Z,2.00
2022-11-06T12:26:27.441Z,2.08
2022-11-06T12:29:02.038Z,2.00
2022-11-06T12:31:34.653Z,2.17
2022-11-06T12:34:06.514Z,2.35
2022-11-06T12:36:39.407Z,1.70
2022-11-06T12:39:20.465Z,2.67
2022-11-06T12:41:49.630Z,3.47
2022-11-06T12:44:18.002Z,1.80
2022-11-06T12:47:05.319Z,2.72
2022-11-06T12:49:51.386Z,2.20
2022-11-06T12:52:27.382Z,2.20
2022-11-06T12:55:00.720Z,2.45
2022-11-06T12:57:30.859Z,2.40
2022-11-06T13:00:17.226Z,2.30
2022-11-06T13:03:02.869Z,1.80
2022-11-06T13:05:39.569Z,2.40
2022-11-06T13:08:13.403Z,2.03
2022-11-06T13:10:43.484Z,2.27
2022-11-06T13:13:16.391Z,2.37
2022-11-06T13:15:53.173Z,2.10
2022-11-06T13:18:20.260Z,1.90
2022-11-06T13:20:53.875Z,2.28
2022-11-06T13:23:43.018Z,2.27
2022-11-06T13:26:18.940Z,2.10
2022-11-06T13:28:49.771Z,1.97
2022-11-06T13:31:18.870Z,2.60
2022-11-06T13:33:56.690Z,2.17
2022-11-06T13:36:24.616Z,2.07
2022-11-06T13:38:55.151Z,2.50
2022-11-06T13:41:29.245Z,2.33
2022-11-06T13:44:03.614Z,2.77
2022-11-06T13:46:30.914Z,2.30
2022-11-06T13:49:04.213Z,1.83
2022-11-06T13:51:40.517Z,2.37
2022-11-06T13:54:17.880Z,2.20
2022-11-06T13:57:06.243Z,2.03
2022-11-06T13:59:34.265Z,2.17
2022-11-06T14:02:01.746Z,1.70
2022-11-06T14:04:29.101Z,2.20
2022-11-06T14:06:58.427Z,2.47
2022-11-06T14:09:26.933Z,4.07
2022-11-06T14:12:04.557Z,3.03
2022-11-06T14:14:33.110Z,2.67
2022-11-06T14:17:18.660Z,2.90
2022-11-06T14:19:50.319Z,3.93
2022-11-06T14:22:31.815Z,2.03
2022-11-06T14:25:02.105Z,1.93
2022-11-06T14:27:29.612Z,2.63
2022-11-06T14:30:05.509Z,2.03
2022-11-06T14:32:32.619Z,2.70
2022-11-06T14:35:18.630Z,2.00
2022-11-06T14:37:47.034Z,2.20
2022-11-06T14:40:14.758Z,1.80
2022-11-06T14:42:43.238Z,2.10
2022-11-06T14:45:17.544Z,2.50
2022-11-06T14:47:52.780Z,2.80
2022-11-06T14:50:19.864Z,3.67
2022-11-06T14:52:49.457Z,2.20
2022-11-06T14:55:35.656Z,2.90
2022-11-06T14:58:18.372Z,3.10
2022-11-06T15:00:50.051Z,2.53
2022-11-06T15:03:23.280Z,2.27
2022-11-06T15:05:52.789Z,1.63
2022-11-06T15:08:38.750Z,2.00
2022-11-06T15:11:07.688Z,3.10
2022-11-06T15:13:34.765Z,1.90
2022-11-06T15:16:03.816Z,2.10
2022-11-06T15:18:32.919Z,3.77
2022-11-06T15:21:02.855Z,1.40
2022-11-06T15:23:33.789Z,2.27
2022-11-06T15:26:15.535Z,2.40
2022-11-06T15:28:45.223Z,1.80
2022-11-06T15:31:14.917Z,1.67
2022-11-06T15:33:54.409Z,1.90
2022-11-06T15:36:23.229Z,1.80
2022-11-06T15:38:50.360Z,2.00
2022-11-06T15:41:20.220Z,2.37
2022-11-06T15:43:48.563Z,2.13
2022-11-06T15:46:24.516Z,2.13
2022-11-06T15:49:12.891Z,2.10
2022-11-06T15:51:42.519Z,1.80
2022-11-06T15:54:14.340Z,1.73
2022-11-06T15:56:42.360Z,2.80
2022-11-06T15:59:13.832Z,2.20
2022-11-06T16:01:41.771Z,4.10
2022-11-06T16:04:15.968Z,2.53
2022-11-06T16:06:43.788Z,2.50
2022-11-06T16:09:20.062Z,2.13
2022-11-06T16:11:50.067Z,2.17
2022-11-06T16:14:17.015Z,1.90
2022-11-06T16:16:47.152Z,2.10
2022-11-06T16:19:36.311Z,2.40
2022-11-06T16:22:13.004Z,2.13
2022-11-06T16:24:50.820Z,2.40
2022-11-06T16:27:18.202Z,2.10
2022-11-06T16:29:54.839Z,2.10
2022-11-06T16:32:25.868Z,2.10
2022-11-06T16:34:55.119Z,1.83
2022-11-06T16:37:27.723Z,1.97
2022-11-06T16:39:55.960Z,2.50
2022-11-06T16:42:22.641Z,2.30
2022-11-06T16:45:16.043Z,2.10
2022-11-06T16:47:42.739Z,2.63
2022-11-06T16:50:42.274Z,2.60
2022-11-06T16:53:09.752Z,2.20
2022-11-06T16:55:36.555Z,1.80
2022-11-06T16:58:04.099Z,2.40
2022-11-06T17:00:33.640Z,2.40
2022-11-06T17:03:05.368Z,2.20
2022-11-06T17:05:36.618Z,2.83
2022-11-06T17:08:18.442Z,2.03
2022-11-06T17:10:49.446Z,2.00
2022-11-06T17:13:31.050Z,2.10
2022-11-06T17:15:59.078Z,2.13
2022-11-06T17:18:34.859Z,2.50
2022-11-06T17:21:04.896Z,2.00
2022-11-06T17:23:33.063Z,2.10
2022-11-06T17:26:06.451Z,2.10
2022-11-06T17:28:33.189Z,2.70
2022-11-06T17:31:00.032Z,2.53
2022-11-06T17:33:26.785Z,2.60
2022-11-06T17:35:53.601Z,3.20
2022-11-06T17:38:20.363Z,3.50
2022-11-06T17:40:47.679Z,2.43
2022-11-06T17:43:14.965Z,2.70
2022-11-06T17:45:44.416Z,2.60
2022-11-06T17:48:11.171Z,2.53
2022-11-06T17:50:58.221Z,2.67
2022-11-06T17:53:24.933Z,2.73
2022-11-06T17:55:51.944Z,3.00
2022-11-06T17:58:18.776Z,2.80
2022-11-06T18:00:45.552Z,3.23
2022-11-06T18:03:22.853Z,2.77
2022-11-06T18:05:49.701Z,2.50
2022-11-06T18:08:16.747Z,2.60
2022-11-06T18:10:43.833Z,2.30
2022-11-06T18:13:10.578Z,2.60
2022-11-06T18:15:37.691Z,3.30
2022-11-06T18:18:04.510Z,2.80
2022-11-06T18:20:31.228Z,2.10
2022-11-06T18:22:58.042Z,2.40
2022-11-06T18:25:24.848Z,3.97
2022-11-06T18:27:51.513Z,3.40
2022-11-06T18:30:18.330Z,2.50
2022-11-06T18:32:45.124Z,4.03
2022-11-06T18:35:12.528Z,3.30
2022-11-06T18:37:39.247Z,3.30
2022-11-06T18:40:06.494Z,3.23
2022-11-06T18:42:33.248Z,2.90
2022-11-06T18:44:59.935Z,3.00
2022-11-06T18:47:26.907Z,4.83
2022-11-06T18:49:53.780Z,3.27
2022-11-06T18:52:44.522Z,3.10
2022-11-06T18:55:07.681Z,3.23
2022-11-06T18:57:34.481Z,4.00
2022-11-06T19:00:01.270Z,3.10
2022-11-06T19:02:28.230Z,3.80
2022-11-06T19:04:55.110Z,3.23
2022-11-06T19:07:22.100Z,3.77
2022-11-06T19:09:48.843Z,4.00
2022-11-06T19:12:15.583Z,3.70
2022-11-06T19:14:42.270Z,4.10
2022-11-06T19:17:09.180Z,3.90
2022-11-06T19:19:35.906Z,4.20
2022-11-06T19:22:02.647Z,3.97
2022-11-06T19:24:29.359Z,4.07
2022-11-06T19:26:56.282Z,4.50
2022-11-06T19:29:23.074Z,3.93
2022-11-06T19:31:50.517Z,3.43
2022-11-06T19:34:17.339Z,3.50
2022-11-06T19:36:44.172Z,3.50
2022-11-06T19:39:11.594Z,3.40
2022-11-06T19:41:38.413Z,4.00
2022-11-06T19:44:05.451Z,4.10
2022-11-06T19:46:36.057Z,3.10
2022-11-06T19:49:05.084Z,3.70
2022-11-06T19:51:33.165Z,3.40
2022-11-06T19:54:01.491Z,3.90
2022-11-06T19:56:28.245Z,3.13
2022-11-06T19:58:54.966Z,3.10
2022-11-06T20:01:21.830Z,3.40
2022-11-06T20:03:48.581Z,3.40
2022-11-06T20:06:16.354Z,2.97
2022-11-06T20:08:43.080Z,2.60
2022-11-06T20:11:13.156Z,3.10
2022-11-06T20:13:41.110Z,3.43
2022-11-06T20:16:13.455Z,3.50
2022-11-06T20:18:40.370Z,3.03
2022-11-06T20:21:09.719Z,3.03
2022-11-06T20:23:37.515Z,2.93
2022-11-06T20:26:05.506Z,2.80
2022-11-06T20:28:33.368Z,2.90
2022-11-06T20:31:03.794Z,4.00
2022-11-06T20:33:30.448Z,2.47
2022-11-06T20:35:57.208Z,2.43
2022-11-06T20:38:25.627Z,2.93
2022-11-06T20:40:55.779Z,3.07
2022-11-06T20:43:22.497Z,2.80
2022-11-06T20:45:49.241Z,2.90
2022-11-06T20:48:16.150Z,3.10
2022-11-06T20:50:42.907Z,2.17
2022-11-06T20:53:09.674Z,2.43
2022-11-06T20:55:36.476Z,3.83
2022-11-06T20:58:03.214Z,2.90
2022-11-06T21:00:30.082Z,2.83
2022-11-06T21:03:01.502Z,2.43
2022-11-06T21:05:28.799Z,2.50
2022-11-06T21:07:55.547Z,2.63
2022-11-06T21:10:22.308Z,2.40
2022-11-06T21:12:48.970Z,2.80
2022-11-06T21:15:16.716Z,2.33
2022-11-06T21:17:43.498Z,2.17
2022-11-06T21:20:11.088Z,2.37
2022-11-06T21:22:37.820Z,2.67
2022-11-06T21:25:04.812Z,3.20
2022-11-06T21:27:31.685Z,2.93
2022-11-06T21:29:58.384Z,1.80
2022-11-06T21:32:25.149Z,2.30
2022-11-06T21:34:51.856Z,2.10
2022-11-06T21:37:18.576Z,2.40
2022-11-06T21:39:45.809Z,3.10
2022-11-06T21:42:12.546Z,2.97
2022-11-06T21:44:42.196Z,3.00
2022-11-06T21:47:11.737Z,3.13
2022-11-06T21:49:38.602Z,2.67
2022-11-06T21:52:28.955Z,2.83
2022-11-06T21:55:14.876Z,3.50
2022-11-06T21:57:41.541Z,2.40
2022-11-06T22:00:11.822Z,2.60
2022-11-06T22:02:40.998Z,2.50
2022-11-06T22:05:08.251Z,3.03
2022-11-06T22:07:35.047Z,2.80
2022-11-06T22:10:01.817Z,2.67
2022-11-06T22:12:28.543Z,2.67
2022-11-06T22:14:55.953Z,3.13
2022-11-06T22:17:22.666Z,2.77
2022-11-06T22:19:49.327Z,2.80
2022-11-06T22:22:15.981Z,2.83
2022-11-06T22:24:42.644Z,3.00
2022-11-06T22:27:09.376Z,3.77
2022-11-06T22:29:36.021Z,4.23
2022-11-06T22:32:02.695Z,3.80
2022-11-06T22:34:29.454Z,3.63
2022-11-06T22:36:56.127Z,2.80
2022-11-06T22:39:22.850Z,2.77
2022-11-06T22:41:49.545Z,2.20
2022-11-06T22:44:16.352Z,3.07
2022-11-06T22:46:43.331Z,2.57
2022-11-06T22:49:10.166Z,2.87
2022-11-06T22:51:37.053Z,3.10
2022-11-06T22:54:04.501Z,2.43
2022-11-06T22:56:32.494Z,3.63
2022-11-06T22:59:04.969Z,2.40
2022-11-06T23:01:36.095Z,3.03
2022-11-06T23:04:07.960Z,3.00
2022-11-06T23:06:34.688Z,3.00
2022-11-06T23:09:01.590Z,3.23
2022-11-06T23:11:29.190Z,2.63
2022-11-06T23:13:56.246Z,2.60
2022-11-06T23:16:43.919Z,2.70
2022-11-06T23:19:13.922Z,2.63
2022-11-06T23:21:41.709Z,3.00
2022-11-06T23:24:09.510Z,2.70
2022-11-06T23:26:36.332Z,2.50
2022-11-06T23:29:03.373Z,2.40
2022-11-06T23:31:30.068Z,2.70
2022-11-06T23:33:56.734Z,2.40
2022-11-06T23:36:23.395Z,2.70
2022-11-06T23:38:53.867Z,2.50
2022-11-06T23:41:39.524Z,3.73
2022-11-06T23:44:26.391Z,3.50
2022-11-06T23:46:53.412Z,3.97
2022-11-06T23:49:20.437Z,4.17
2022-11-06T23:51:47.270Z,3.60
2022-11-06T23:54:14.188Z,3.90
2022-11-06T23:56:40.863Z,4.10
2022-11-06T23:59:07.622Z,4.37
